createdAt,value
2023-02-25T00:01:14.587Z,16.03
2023-02-25T00:03:43.201Z,13.53
2023-02-25T00:06:13.724Z,16.97
2023-02-25T00:08:46.205Z,14.40
2023-02-25T00:11:15.626Z,14.90
2023-02-25T00:13:44.255Z,12.67
2023-02-25T00:16:13.215Z,18.20
2023-02-25T00:18:44.205Z,16.27
2023-02-25T00:21:15.141Z,17.60
2023-02-25T00:23:46.473Z,17.97
2023-02-25T00:26:15.372Z,14.63
2023-02-25T00:28:43.836Z,14.60
2023-02-25T00:31:15.324Z,15.20
2023-02-25T00:33:43.404Z,15.73
2023-02-25T00:36:13.020Z,12.73
2023-02-25T00:38:41.322Z,17.27
2023-02-25T00:41:12.622Z,18.70
2023-02-25T00:43:42.115Z,13.13
2023-02-25T00:46:10.490Z,18.47
2023-02-25T00:48:38.675Z,16.67
2023-02-25T00:51:08.871Z,15.70
2023-02-25T00:53:37.879Z,12.97
2023-02-25T00:56:07.217Z,12.57
2023-02-25T00:58:37.734Z,22.10
2023-02-25T01:01:07.443Z,19.70
2023-02-25T01:03:35.182Z,13.70
2023-02-25T01:06:03.049Z,23.07
2023-02-25T01:08:30.914Z,19.67
2023-02-25T01:10:58.659Z,14.57
2023-02-25T01:13:26.376Z,14.63
2023-02-25T01:15:55.459Z,17.10
2023-02-25T01:18:24.152Z,20.40
2023-02-25T01:20:51.862Z,11.67
2023-02-25T01:23:19.613Z,17.13
2023-02-25T01:25:47.318Z,19.73
2023-02-25T01:28:15.014Z,13.90
2023-02-25T01:30:42.747Z,12.80
2023-02-25T01:33:11.882Z,13.33
2023-02-25T01:35:39.591Z,11.43
2023-02-25T01:38:07.295Z,21.90
2023-02-25T01:40:34.994Z,13.50
2023-02-25T01:43:02.688Z,18.17
2023-02-25T01:45:33.447Z,18.27
2023-02-25T01:48:10.390Z,17.07
2023-02-25T01:50:45.994Z,16.50
2023-02-25T01:53:14.992Z,13.20
2023-02-25T01:55:43.406Z,12.83
2023-02-25T01:58:11.731Z,28.03
2023-02-25T02:00:39.778Z,10.37
2023-02-25T02:03:16.060Z,12.82
2023-02-25T02:06:03.928Z,14.73
2023-02-25T02:08:34.223Z,19.53
2023-02-25T02:11:02.614Z,15.70
2023-02-25T02:13:31.622Z,18.13
2023-02-25T02:16:14.533Z,14.70
2023-02-25T02:18:46.474Z,14.07
2023-02-25T02:21:26.057Z,9.73
2023-02-25T02:24:21.091Z,8.97
2023-02-25T02:26:59.392Z,11.73
2023-02-25T02:30:23.212Z,8.83
2023-02-25T02:32:57.826Z,13.40
2023-02-25T02:35:36.617Z,18.53
2023-02-25T02:38:13.148Z,7.37
2023-02-25T02:40:49.196Z,9.67
2023-02-25T02:43:29.855Z,10.70
2023-02-25T02:46:01.865Z,15.57
2023-02-25T02:48:37.242Z,9.30
2023-02-25T02:51:10.419Z,10.27
2023-02-25T02:53:41.968Z,10.87
2023-02-25T02:56:13.233Z,8.47
2023-02-25T02:58:44.662Z,9.07
2023-02-25T03:01:15.167Z,17.87
2023-02-25T03:03:48.509Z,8.50
2023-02-25T03:06:21.189Z,10.57
2023-02-25T03:08:54.581Z,8.50
2023-02-25T03:11:22.416Z,10.80
2023-02-25T03:13:51.776Z,15.50
2023-02-25T03:16:25.208Z,11.90
2023-02-25T03:18:59.961Z,11.37
2023-02-25T03:21:33.453Z,12.73
2023-02-25T03:24:04.233Z,17.50
2023-02-25T03:26:34.608Z,15.50
2023-02-25T03:29:02.393Z,14.63
2023-02-25T03:31:33.833Z,18.67
2023-02-25T03:34:08.716Z,12.57
2023-02-25T03:36:42.207Z,23.40
2023-02-25T03:39:13.059Z,15.43
2023-02-25T03:41:44.642Z,15.57
2023-02-25T03:44:17.040Z,13.67
2023-02-25T03:46:47.647Z,14.20
2023-02-25T03:49:22.563Z,16.93
2023-02-25T03:51:52.100Z,16.07
2023-02-25T03:54:19.972Z,9.77
2023-02-25T03:56:49.825Z,16.63
2023-02-25T03:59:18.812Z,13.63
2023-02-25T04:01:49.756Z,11.60
2023-02-25T04:04:19.001Z,13.03
2023-02-25T04:06:47.271Z,10.60
2023-02-25T04:09:15.061Z,15.53
2023-02-25T04:11:42.769Z,10.03
2023-02-25T04:14:10.496Z,13.67
2023-02-25T04:16:38.273Z,10.97
2023-02-25T04:19:05.981Z,8.70
2023-02-25T04:21:36.709Z,13.33
2023-02-25T04:24:05.558Z,8.33
2023-02-25T04:26:33.356Z,10.67
2023-02-25T04:29:01.101Z,9.70
2023-02-25T04:31:28.877Z,9.67
2023-02-25T04:33:58.079Z,7.83
2023-02-25T04:36:28.202Z,8.20
2023-02-25T04:38:58.686Z,12.73
2023-02-25T04:41:30.730Z,14.83
2023-02-25T04:43:58.883Z,12.03
2023-02-25T04:46:27.021Z,10.10
2023-02-25T04:48:54.886Z,10.00
2023-02-25T04:51:22.639Z,11.63
2023-02-25T04:53:50.757Z,8.60
2023-02-25T04:56:19.879Z,13.73
2023-02-25T04:58:47.981Z,14.30
2023-02-25T05:01:15.897Z,8.60
2023-02-25T05:03:43.680Z,10.13
2023-02-25T05:06:11.453Z,9.53
2023-02-25T05:08:39.297Z,7.03
2023-02-25T05:11:07.051Z,16.40
2023-02-25T05:13:36.122Z,7.70
2023-02-25T05:16:08.307Z,9.83
2023-02-25T05:18:39.616Z,12.70
2023-02-25T05:21:12.077Z,9.70
2023-02-25T05:23:39.898Z,6.63
2023-02-25T05:26:08.035Z,12.33
2023-02-25T05:28:38.104Z,9.47
2023-02-25T05:31:06.654Z,9.63
2023-02-25T05:33:34.958Z,8.70
2023-02-25T05:36:02.704Z,9.40
2023-02-25T05:38:30.420Z,7.03
2023-02-25T05:41:00.574Z,9.23
2023-02-25T05:43:28.737Z,8.57
2023-02-25T05:45:59.347Z,12.43
2023-02-25T05:48:27.042Z,13.03
2023-02-25T05:51:01.627Z,9.60
2023-02-25T05:53:29.427Z,8.73
2023-02-25T05:55:57.148Z,8.67
2023-02-25T05:58:25.531Z,10.83
2023-02-25T06:00:53.994Z,7.27
2023-02-25T06:03:23.128Z,10.90
2023-02-25T06:05:53.044Z,7.73
2023-02-25T06:08:20.831Z,12.93
2023-02-25T06:10:48.575Z,9.90
2023-02-25T06:13:16.332Z,7.63
2023-02-25T06:15:44.204Z,7.70
2023-02-25T06:18:11.945Z,8.13
2023-02-25T06:20:40.954Z,10.87
2023-02-25T06:23:08.636Z,7.20
2023-02-25T06:25:36.579Z,7.80
2023-02-25T06:28:04.624Z,5.47
2023-02-25T06:30:32.826Z,8.50
2023-02-25T06:33:00.568Z,7.90
2023-02-25T06:35:28.548Z,10.57
2023-02-25T06:37:58.281Z,6.60
2023-02-25T06:40:26.378Z,6.07
2023-02-25T06:42:54.132Z,8.57
2023-02-25T06:45:22.042Z,9.60
2023-02-25T06:47:49.714Z,9.10
2023-02-25T06:50:18.348Z,9.10
2023-02-25T06:52:46.016Z,7.43
2023-02-25T06:55:15.059Z,8.17
2023-02-25T06:57:42.757Z,6.83
2023-02-25T07:00:11.687Z,7.53
2023-02-25T07:02:39.395Z,6.90
2023-02-25T07:05:07.586Z,10.23
2023-02-25T07:07:35.326Z,6.50
2023-02-25T07:10:03.018Z,9.40
2023-02-25T07:12:32.384Z,7.30
2023-02-25T07:15:00.380Z,9.53
2023-02-25T07:17:28.056Z,8.37
2023-02-25T07:19:56.134Z,9.80
2023-02-25T07:22:24.316Z,6.83
2023-02-25T07:24:52.194Z,10.70
2023-02-25T07:27:20.033Z,8.83
2023-02-25T07:29:49.277Z,12.10
2023-02-25T07:32:17.182Z,9.13
2023-02-25T07:34:45.230Z,7.73
2023-02-25T07:37:13.612Z,6.97
2023-02-25T07:39:41.740Z,7.13
2023-02-25T07:42:09.445Z,9.50
2023-02-25T07:44:37.164Z,8.10
2023-02-25T07:47:06.339Z,6.67
2023-02-25T07:49:34.123Z,7.07
2023-02-25T07:52:01.870Z,7.90
2023-02-25T07:54:29.808Z,8.57
2023-02-25T07:56:57.545Z,6.50
2023-02-25T07:59:25.324Z,6.67
2023-02-25T08:01:53.017Z,5.40
2023-02-25T08:04:22.401Z,6.90
2023-02-25T08:06:51.570Z,5.73
2023-02-25T08:09:19.777Z,6.27
2023-02-25T08:11:48.001Z,7.47
2023-02-25T08:14:16.076Z,6.03
2023-02-25T08:16:43.778Z,6.93
2023-02-25T08:19:11.521Z,7.30
2023-02-25T08:21:41.172Z,8.20
2023-02-25T08:24:09.543Z,5.40
2023-02-25T08:26:37.280Z,6.80
2023-02-25T08:29:05.300Z,6.83
2023-02-25T08:31:33.207Z,9.30
2023-02-25T08:34:01.285Z,7.37
2023-02-25T08:36:31.224Z,6.97
2023-02-25T08:39:01.680Z,7.13
2023-02-25T08:41:30.575Z,5.70
2023-02-25T08:44:00.301Z,6.97
2023-02-25T08:46:30.507Z,6.20
2023-02-25T08:48:59.023Z,7.33
2023-02-25T08:51:33.769Z,7.43
2023-02-25T08:54:04.916Z,6.60
2023-02-25T08:56:32.747Z,6.40
2023-02-25T08:59:00.500Z,7.17
2023-02-25T09:01:44.305Z,7.67
2023-02-25T09:04:12.477Z,8.40
2023-02-25T09:06:40.279Z,11.13
2023-02-25T09:09:09.582Z,8.33
2023-02-25T09:11:37.334Z,9.00
2023-02-25T09:14:05.055Z,5.70
2023-02-25T09:16:32.897Z,6.07
2023-02-25T09:19:00.650Z,6.30
2023-02-25T09:21:28.384Z,7.53
2023-02-25T09:23:56.099Z,5.70
2023-02-25T09:26:25.260Z,12.10
2023-02-25T09:28:52.975Z,4.90
2023-02-25T09:31:21.195Z,5.43
2023-02-25T09:33:49.073Z,6.47
2023-02-25T09:36:19.078Z,5.83
2023-02-25T09:38:48.138Z,6.47
2023-02-25T09:41:25.405Z,5.40
2023-02-25T09:44:03.329Z,5.57
2023-02-25T09:46:32.228Z,4.90
2023-02-25T09:49:04.172Z,6.17
2023-02-25T09:51:37.198Z,5.43
2023-02-25T09:54:16.658Z,7.00
2023-02-25T09:56:44.718Z,6.33
2023-02-25T09:59:16.840Z,7.93
2023-02-25T10:01:50.218Z,7.53
2023-02-25T10:04:25.550Z,5.00
2023-02-25T10:06:55.972Z,7.10
2023-02-25T10:09:35.226Z,7.70
2023-02-25T10:12:14.392Z,5.87
2023-02-25T10:15:06.118Z,6.57
2023-02-25T10:17:44.363Z,6.10
2023-02-25T10:20:38.904Z,5.47
2023-02-25T10:23:13.696Z,6.10
2023-02-25T10:25:59.459Z,8.20
2023-02-25T10:28:30.623Z,5.60
2023-02-25T10:31:04.873Z,5.77
2023-02-25T10:33:36.772Z,6.80
2023-02-25T10:36:09.736Z,5.50
2023-02-25T10:38:40.852Z,6.30
2023-02-25T10:41:09.362Z,5.30
2023-02-25T10:43:37.369Z,6.07
2023-02-25T10:46:12.413Z,6.10
2023-02-25T10:48:42.184Z,5.77
2023-02-25T10:51:12.791Z,5.40
2023-02-25T10:53:41.189Z,6.27
2023-02-25T10:56:11.122Z,7.73
2023-02-25T10:58:41.398Z,5.00
2023-02-25T11:01:15.232Z,5.37
2023-02-25T11:03:48.726Z,5.20
2023-02-25T11:06:24.289Z,9.20
2023-02-25T11:08:54.584Z,7.10
2023-02-25T11:11:24.344Z,5.30
2023-02-25T11:14:00.889Z,6.57
2023-02-25T11:16:31.719Z,13.73
2023-02-25T11:19:02.986Z,5.87
2023-02-25T11:21:40.997Z,6.30
2023-02-25T11:24:14.896Z,5.40
2023-02-25T11:26:45.176Z,7.37
2023-02-25T11:29:18.679Z,6.90
2023-02-25T11:31:52.043Z,5.93
2023-02-25T11:34:23.633Z,7.10
2023-02-25T11:36:52.564Z,6.90
2023-02-25T11:39:22.324Z,6.10
2023-02-25T11:41:51.998Z,6.03
2023-02-25T11:44:28.072Z,8.40
2023-02-25T11:47:05.095Z,5.30
2023-02-25T11:50:04.938Z,6.17
2023-02-25T11:52:38.178Z,5.37
2023-02-25T11:55:21.616Z,6.90
2023-02-25T11:58:03.507Z,8.70
2023-02-25T12:00:39.771Z,5.87
2023-02-25T12:03:29.664Z,4.97
2023-02-25T12:06:10.373Z,4.60
2023-02-25T12:08:45.860Z,7.73
2023-02-25T12:11:47.790Z,5.93
2023-02-25T12:14:51.206Z,5.47
2023-02-25T12:17:48.357Z,6.33
2023-02-25T12:20:46.211Z,6.30
2023-02-25T12:23:38.847Z,6.10
2023-02-25T12:26:12.762Z,7.60
2023-02-25T12:29:05.116Z,7.50
2023-02-25T12:32:08.372Z,6.50
2023-02-25T12:35:07.621Z,7.07
2023-02-25T12:37:56.269Z,6.13
2023-02-25T12:40:38.093Z,8.73
2023-02-25T12:43:19.261Z,8.23
2023-02-25T12:46:04.449Z,7.93
2023-02-25T12:48:48.217Z,7.50
2023-02-25T12:51:48.452Z,6.53
2023-02-25T12:54:38.915Z,6.10
2023-02-25T12:57:31.872Z,6.10
2023-02-25T13:00:20.217Z,6.27
2023-02-25T13:03:21.950Z,7.90
2023-02-25T13:06:04.170Z,5.90
2023-02-25T13:08:41.964Z,9.20
2023-02-25T13:11:22.111Z,5.67
2023-02-25T13:14:11.997Z,7.87
2023-02-25T13:16:54.456Z,6.77
2023-02-25T13:19:48.265Z,6.27
2023-02-25T13:22:24.692Z,7.40
2023-02-25T13:25:05.033Z,6.17
2023-02-25T13:27:53.573Z,6.80
2023-02-25T13:30:36.019Z,5.83
2023-02-25T13:33:24.816Z,6.00
2023-02-25T13:36:01.564Z,5.27
2023-02-25T13:38:39.365Z,5.73
2023-02-25T13:41:26.504Z,8.10
2023-02-25T13:44:32.895Z,6.00
2023-02-25T13:47:28.572Z,8.63
2023-02-25T13:50:19.459Z,5.43
2023-02-25T13:53:05.387Z,6.60
2023-02-25T13:55:55.032Z,6.43
2023-02-25T13:58:42.350Z,5.80
2023-02-25T14:01:30.122Z,5.57
2023-02-25T14:04:33.261Z,5.43
2023-02-25T14:07:20.299Z,5.23
2023-02-25T14:09:57.778Z,6.03
2023-02-25T14:12:41.143Z,6.60
2023-02-25T14:15:36.524Z,6.40
2023-02-25T14:18:24.328Z,7.43
2023-02-25T14:21:04.766Z,7.30
2023-02-25T14:23:44.248Z,6.67
2023-02-25T14:26:24.777Z,5.27
2023-02-25T14:29:09.012Z,7.50
2023-02-25T14:31:50.642Z,5.37
2023-02-25T14:34:37.046Z,6.13
2023-02-25T14:37:21.121Z,6.47
2023-02-25T14:40:05.177Z,5.67
2023-02-25T14:42:44.644Z,6.47
2023-02-25T14:45:22.195Z,8.30
2023-02-25T14:47:58.600Z,6.50
2023-02-25T14:50:32.229Z,5.93
2023-02-25T14:53:27.711Z,6.60
2023-02-25T14:56:10.996Z,6.50
2023-02-25T14:59:11.633Z,11.67
2023-02-25T15:02:01.334Z,6.37
2023-02-25T15:04:50.720Z,16.33
2023-02-25T15:07:33.379Z,6.63
2023-02-25T15:10:15.824Z,7.83
2023-02-25T15:13:12.487Z,10.53
2023-02-25T15:15:59.571Z,7.50
2023-02-25T15:18:59.879Z,5.37
2023-02-25T15:21:38.884Z,8.00
2023-02-25T15:24:32.470Z,9.80
2023-02-25T15:27:00.725Z,6.60
2023-02-25T15:29:57.283Z,8.47
2023-02-25T15:32:28.249Z,9.37
2023-02-25T15:35:00.255Z,6.83
2023-02-25T15:37:31.606Z,5.87
2023-02-25T15:40:02.971Z,7.67
2023-02-25T15:42:49.440Z,7.00
2023-02-25T15:45:38.051Z,7.37
2023-02-25T15:48:31.707Z,8.70
2023-02-25T15:51:01.220Z,7.33
2023-02-25T15:53:48.281Z,5.93
2023-02-25T15:56:32.210Z,8.47
2023-02-25T15:59:00.416Z,6.30
2023-02-25T16:01:42.446Z,6.20
2023-02-25T16:04:45.264Z,7.47
2023-02-25T16:07:16.769Z,7.37
2023-02-25T16:09:51.530Z,6.13
2023-02-25T16:12:20.875Z,6.30
2023-02-25T16:14:48.921Z,8.70
2023-02-25T16:17:20.160Z,9.07
2023-02-25T16:19:52.774Z,7.80
2023-02-25T16:22:23.151Z,9.73
2023-02-25T16:24:53.617Z,7.57
2023-02-25T16:27:37.247Z,12.20
2023-02-25T16:30:14.860Z,13.53
2023-02-25T16:32:54.742Z,7.37
2023-02-25T16:35:28.286Z,8.73
2023-02-25T16:38:04.485Z,5.90
2023-02-25T16:40:37.613Z,5.17
2023-02-25T16:43:07.968Z,7.20
2023-02-25T16:45:40.804Z,5.23
2023-02-25T16:48:15.280Z,6.67
2023-02-25T16:50:47.150Z,9.43
2023-02-25T16:53:20.184Z,8.97
2023-02-25T16:55:48.677Z,6.20
2023-02-25T16:58:26.240Z,9.60
2023-02-25T17:00:56.145Z,6.03
2023-02-25T17:03:26.622Z,6.73
2023-02-25T17:06:06.266Z,7.33
2023-02-25T17:08:34.917Z,7.13
2023-02-25T17:11:05.758Z,7.30
2023-02-25T17:13:37.503Z,8.87
2023-02-25T17:16:07.072Z,7.03
2023-02-25T17:18:39.752Z,7.67
2023-02-25T17:21:15.757Z,9.03
2023-02-25T17:23:45.053Z,8.03
2023-02-25T17:26:15.144Z,7.47
2023-02-25T17:28:46.985Z,10.83
2023-02-25T17:31:18.291Z,9.00
2023-02-25T17:33:52.800Z,8.70
2023-02-25T17:36:24.867Z,9.77
2023-02-25T17:38:57.151Z,7.43
2023-02-25T17:41:25.830Z,13.00
2023-02-25T17:43:55.174Z,6.47
2023-02-25T17:46:29.259Z,7.93
2023-02-25T17:48:59.422Z,9.13
2023-02-25T17:51:33.542Z,7.20
2023-02-25T17:54:07.473Z,6.70
2023-02-25T17:56:36.893Z,10.33
2023-02-25T17:59:08.584Z,9.43
2023-02-25T18:01:49.127Z,7.10
2023-02-25T18:04:26.157Z,8.43
2023-02-25T18:06:55.282Z,10.90
2023-02-25T18:09:37.874Z,8.43
2023-02-25T18:12:08.286Z,9.97
2023-02-25T18:14:39.459Z,10.07
2023-02-25T18:17:19.813Z,9.30
2023-02-25T18:19:48.845Z,5.57
2023-02-25T18:22:32.686Z,8.10
2023-02-25T18:25:02.966Z,7.53
2023-02-25T18:27:32.408Z,9.37
2023-02-25T18:30:18.035Z,7.57
2023-02-25T18:32:46.139Z,12.47
2023-02-25T18:35:14.151Z,8.47
2023-02-25T18:37:42.628Z,7.00
2023-02-25T18:40:16.999Z,7.53
2023-02-25T18:42:44.992Z,9.75
2023-02-25T18:45:20.961Z,9.23
2023-02-25T18:47:49.115Z,7.37
2023-02-25T18:50:17.561Z,9.20
2023-02-25T18:52:45.866Z,8.60
2023-02-25T18:55:18.262Z,7.53
2023-02-25T18:57:46.263Z,6.90
2023-02-25T19:00:15.189Z,10.23
2023-02-25T19:02:49.661Z,7.50
2023-02-25T19:05:18.348Z,6.50
2023-02-25T19:07:46.578Z,6.73
2023-02-25T19:10:17.829Z,7.87
2023-02-25T19:12:48.478Z,12.87
2023-02-25T19:15:18.990Z,7.47
2023-02-25T19:17:48.745Z,8.17
2023-02-25T19:20:18.695Z,12.57
2023-02-25T19:22:48.533Z,11.77
2023-02-25T19:25:20.985Z,9.40
2023-02-25T19:27:49.469Z,10.33
2023-02-25T19:30:19.274Z,9.43
2023-02-25T19:32:48.522Z,8.23
2023-02-25T19:35:16.452Z,8.70
2023-02-25T19:37:45.130Z,7.10
2023-02-25T19:40:15.329Z,9.60
2023-02-25T19:42:45.035Z,11.60
2023-02-25T19:45:19.812Z,8.30
2023-02-25T19:47:50.484Z,6.87
2023-02-25T19:50:20.797Z,7.33
2023-02-25T19:52:48.891Z,8.30
2023-02-25T19:55:16.969Z,8.13
2023-02-25T19:57:44.850Z,8.00
2023-02-25T20:00:15.865Z,9.10
2023-02-25T20:02:44.149Z,9.27
2023-02-25T20:05:14.508Z,9.20
2023-02-25T20:07:43.113Z,11.87
2023-02-25T20:10:13.665Z,9.23
2023-02-25T20:12:42.484Z,8.47
2023-02-25T20:15:12.591Z,8.60
2023-02-25T20:17:41.686Z,7.57
2023-02-25T20:20:10.840Z,10.43
2023-02-25T20:22:40.891Z,12.23
2023-02-25T20:25:10.202Z,12.73
2023-02-25T20:27:39.671Z,10.30
2023-02-25T20:30:09.023Z,8.63
2023-02-25T20:32:36.856Z,8.23
2023-02-25T20:35:05.428Z,8.87
2023-02-25T20:37:37.784Z,7.03
2023-02-25T20:40:11.864Z,15.50
2023-02-25T20:42:48.718Z,7.70
2023-02-25T20:45:17.343Z,7.70
2023-02-25T20:47:45.467Z,11.30
2023-02-25T20:50:16.321Z,10.63
2023-02-25T20:52:44.264Z,7.63
2023-02-25T20:55:13.460Z,11.17
2023-02-25T20:57:41.273Z,11.17
2023-02-25T21:00:14.532Z,8.97
2023-02-25T21:02:43.787Z,8.90
2023-02-25T21:05:14.625Z,12.00
2023-02-25T21:07:42.318Z,12.33
2023-02-25T21:10:11.300Z,8.17
2023-02-25T21:12:40.466Z,11.23
2023-02-25T21:15:09.606Z,17.53
2023-02-25T21:17:37.347Z,10.60
2023-02-25T21:20:06.733Z,7.03
2023-02-25T21:22:38.249Z,9.50
2023-02-25T21:25:06.442Z,9.27
2023-02-25T21:27:36.222Z,9.70
2023-02-25T21:30:06.474Z,12.00
2023-02-25T21:32:34.198Z,9.40
2023-02-25T21:35:01.940Z,8.17
2023-02-25T21:37:29.655Z,21.20
2023-02-25T21:39:57.390Z,7.43
2023-02-25T21:42:25.147Z,11.43
2023-02-25T21:44:52.839Z,8.93
2023-02-25T21:47:21.912Z,7.07
2023-02-25T21:49:50.219Z,7.43
2023-02-25T21:52:18.615Z,11.07
2023-02-25T21:54:46.371Z,6.70
2023-02-25T21:57:14.096Z,7.53
2023-02-25T21:59:41.818Z,8.20
2023-02-25T22:02:11.144Z,6.40
2023-02-25T22:04:40.303Z,8.63
2023-02-25T22:07:08.097Z,10.00
2023-02-25T22:09:35.938Z,10.50
2023-02-25T22:12:03.683Z,11.30
2023-02-25T22:14:31.408Z,8.70
2023-02-25T22:17:01.588Z,6.40
2023-02-25T22:19:29.656Z,11.00
2023-02-25T22:21:58.693Z,8.77
2023-02-25T22:24:26.781Z,8.80
2023-02-25T22:26:54.549Z,9.60
2023-02-25T22:29:22.544Z,7.63
2023-02-25T22:31:50.782Z,8.10
2023-02-25T22:34:19.106Z,16.30
2023-02-25T22:36:47.682Z,6.63
2023-02-25T22:39:16.977Z,6.73
2023-02-25T22:41:44.714Z,7.13
2023-02-25T22:44:12.430Z,7.23
2023-02-25T22:46:41.261Z,7.17
2023-02-25T22:49:09.947Z,7.07
2023-02-25T22:51:41.998Z,7.50
2023-02-25T22:54:10.037Z,5.90
2023-02-25T22:56:39.253Z,11.37
2023-02-25T22:59:07.768Z,6.50
2023-02-25T23:01:36.291Z,7.07
2023-02-25T23:04:04.202Z,8.43
2023-02-25T23:06:48.879Z,8.93
2023-02-25T23:09:16.917Z,5.33
2023-02-25T23:11:46.027Z,7.90
2023-02-25T23:14:14.552Z,7.10
2023-02-25T23:16:44.012Z,6.97
2023-02-25T23:19:15.286Z,8.13
2023-02-25T23:21:43.383Z,5.70
2023-02-25T23:24:16.468Z,8.87
2023-02-25T23:26:47.622Z,7.53
2023-02-25T23:29:15.742Z,7.07
2023-02-25T23:31:45.586Z,10.60
2023-02-25T23:34:15.501Z,8.30
2023-02-25T23:36:44.612Z,7.73
2023-02-25T23:39:13.745Z,6.80
2023-02-25T23:41:41.750Z,7.23
2023-02-25T23:44:13.361Z,10.03
2023-02-25T23:46:44.000Z,8.60
2023-02-25T23:49:14.339Z,7.20
2023-02-25T23:51:43.486Z,9.23
2023-02-25T23:54:14.204Z,7.87
2023-02-25T23:56:41.922Z,7.97
2023-02-25T23:59:11.344Z,8.97
